createdAt,value
2022-09-23T00:00:46.188Z,74.33
2022-09-23T00:03:28.880Z,74.03
2022-09-23T00:06:16.318Z,74.32
2022-09-23T00:09:06.178Z,74.06
2022-09-23T00:11:55.190Z,74.18
2022-09-23T00:14:37.885Z,74.04
2022-09-23T00:17:26.176Z,73.52
2022-09-23T00:20:08.814Z,73.59
2022-09-23T00:22:57.951Z,72.83
2022-09-23T00:25:40.313Z,72.88
2022-09-23T00:28:28.883Z,72.92
2022-09-23T00:31:29.822Z,73.38
2022-09-23T00:34:19.931Z,73.24
2022-09-23T00:37:08.825Z,73.53
2022-09-23T00:39:57.796Z,73.65
2022-09-23T00:42:46.904Z,73.41
2022-09-23T00:45:30.050Z,74.19
2022-09-23T00:48:19.807Z,74.01
2022-09-23T00:51:09.813Z,74.60
2022-09-23T00:53:56.260Z,74.46
2022-09-23T00:56:46.822Z,74.56
2022-09-23T00:59:31.193Z,74.27
2022-09-23T01:02:21.959Z,74.36
2022-09-23T01:05:04.183Z,74.25
2022-09-23T01:07:53.896Z,75.24
2022-09-23T01:10:44.362Z,74.72
2022-09-23T01:14:06.890Z,75.25
2022-09-23T01:17:00.206Z,75.24
2022-09-23T01:20:10.889Z,74.25
2022-09-23T01:23:16.189Z,73.63
2022-09-23T01:26:16.873Z,73.76
2022-09-23T01:29:26.788Z,74.76
2022-09-23T01:32:42.929Z,74.08
2022-09-23T01:35:44.989Z,74.84
2022-09-23T01:38:41.888Z,73.67
2022-09-23T01:41:36.193Z,73.77
2022-09-23T01:44:21.908Z,74.38
2022-09-23T01:47:32.884Z,73.22
2022-09-23T01:50:52.241Z,72.79
2022-09-23T01:53:58.171Z,72.97
2022-09-23T01:57:12.876Z,73.55
2022-09-23T02:00:11.886Z,73.27
2022-09-23T02:03:00.431Z,72.95
2022-09-23T02:05:56.876Z,72.68
2022-09-23T02:08:49.191Z,72.21
2022-09-23T02:11:43.882Z,71.43
2022-09-23T02:14:39.156Z,71.79
2022-09-23T02:17:54.890Z,71.36
2022-09-23T02:20:47.899Z,71.58
2022-09-23T02:23:45.462Z,72.24
2022-09-23T02:27:02.898Z,72.93
2022-09-23T02:30:03.877Z,71.71
2022-09-23T02:33:16.509Z,72.23
2022-09-23T02:36:14.886Z,71.93
2022-09-23T02:39:11.978Z,72.46
2022-09-23T02:42:07.173Z,71.65
2022-09-23T02:44:55.895Z,70.78
2022-09-23T02:47:42.322Z,71.90
2022-09-23T02:50:30.912Z,71.53
2022-09-23T02:53:14.307Z,70.28
2022-09-23T02:56:02.922Z,70.48
2022-09-23T02:58:51.773Z,71.55
2022-09-23T03:01:59.919Z,71.56
2022-09-23T03:04:43.593Z,70.82
2022-09-23T03:07:32.901Z,70.94
2022-09-23T03:10:24.162Z,70.95
2022-09-23T03:13:37.904Z,70.92
2022-09-23T03:16:53.239Z,70.24
2022-09-23T03:20:01.896Z,70.36
2022-09-23T03:22:58.146Z,70.49
2022-09-23T03:25:50.904Z,69.84
2022-09-23T03:28:35.174Z,68.71
2022-09-23T03:31:24.912Z,68.56
2022-09-23T03:34:10.261Z,68.13
2022-09-23T03:37:15.863Z,68.16
2022-09-23T03:40:32.979Z,69.42
2022-09-23T03:43:15.530Z,67.15
2022-09-23T03:46:08.951Z,68.30
2022-09-23T03:48:51.097Z,68.27
2022-09-23T03:51:44.393Z,69.16
2022-09-23T03:54:37.791Z,69.18
2022-09-23T03:57:23.055Z,69.43
2022-09-23T04:00:15.982Z,67.98
2022-09-23T04:03:09.538Z,68.56
2022-09-23T04:05:59.169Z,70.30
2022-09-23T04:08:40.773Z,68.77
2022-09-23T04:11:29.187Z,67.81
2022-09-23T04:14:11.873Z,67.19
2022-09-23T04:17:00.154Z,67.68
2022-09-23T04:19:42.894Z,69.30
2022-09-23T04:22:25.133Z,68.91
2022-09-23T04:25:13.881Z,69.07
2022-09-23T04:27:56.068Z,68.56
2022-09-23T04:30:44.889Z,69.89
2022-09-23T04:33:27.355Z,69.84
2022-09-23T04:36:15.863Z,68.75
2022-09-23T04:38:58.514Z,65.81
2022-09-23T04:41:46.874Z,65.37
2022-09-23T04:44:29.400Z,65.71
2022-09-23T04:47:17.793Z,64.10
2022-09-23T04:50:06.857Z,65.71
2022-09-23T04:52:56.200Z,63.77
2022-09-23T04:55:38.097Z,61.83
2022-09-23T04:58:26.901Z,62.54
2022-09-23T05:01:18.367Z,62.75
2022-09-23T05:04:09.902Z,62.54
2022-09-23T05:06:52.092Z,60.87
2022-09-23T05:09:40.898Z,61.69
2022-09-23T05:12:23.044Z,59.94
2022-09-23T05:15:23.858Z,58.27
2022-09-23T05:18:06.151Z,58.35
2022-09-23T05:20:54.864Z,58.16
2022-09-23T05:23:38.010Z,58.20
2022-09-23T05:26:27.875Z,58.93
2022-09-23T05:29:16.862Z,56.54
2022-09-23T05:32:11.772Z,59.96
2022-09-23T05:34:56.239Z,60.30
2022-09-23T05:37:44.774Z,61.21
2022-09-23T05:40:27.094Z,62.31
2022-09-23T05:43:15.806Z,61.24
2022-09-23T05:46:08.122Z,63.14
2022-09-23T05:49:02.180Z,62.14
2022-09-23T05:51:50.130Z,61.82
2022-09-23T05:54:38.781Z,61.82
2022-09-23T05:57:22.114Z,61.95
2022-09-23T06:00:10.865Z,61.90
2022-09-23T06:02:53.112Z,62.83
2022-09-23T06:05:41.885Z,63.69
2022-09-23T06:08:24.940Z,64.06
2022-09-23T06:11:17.910Z,63.94
2022-09-23T06:14:02.325Z,64.89
2022-09-23T06:16:51.880Z,65.05
2022-09-23T06:19:34.156Z,66.06
2022-09-23T06:22:24.873Z,65.31
2022-09-23T06:25:14.198Z,65.78
2022-09-23T06:28:02.930Z,65.90
2022-09-23T06:30:57.782Z,64.93
2022-09-23T06:33:46.949Z,65.39
2022-09-23T06:36:41.389Z,67.49
2022-09-23T06:39:32.769Z,66.37
2022-09-23T06:42:16.968Z,67.91
2022-09-23T06:45:06.869Z,67.46
2022-09-23T06:48:03.889Z,69.25
2022-09-23T06:50:52.709Z,70.33
2022-09-23T06:53:35.940Z,71.34
2022-09-23T06:56:26.179Z,70.20
2022-09-23T06:59:07.879Z,70.54
2022-09-23T07:01:57.367Z,70.95
2022-09-23T07:04:38.797Z,69.42
2022-09-23T07:07:27.699Z,68.99
2022-09-23T07:10:12.957Z,69.44
2022-09-23T07:13:01.140Z,69.41
2022-09-23T07:15:43.983Z,70.50
2022-09-23T07:18:36.995Z,70.58
2022-09-23T07:21:22.941Z,70.98
2022-09-23T07:24:12.451Z,71.00
2022-09-23T07:26:53.948Z,72.19
2022-09-23T07:29:46.095Z,70.78
2022-09-23T07:32:47.603Z,71.35
2022-09-23T07:35:38.180Z,72.97
2022-09-23T07:38:20.967Z,73.06
2022-09-23T07:41:12.187Z,72.07
2022-09-23T07:43:54.875Z,71.69
2022-09-23T07:46:44.825Z,72.44
2022-09-23T07:49:33.779Z,71.03
2022-09-23T07:52:22.803Z,70.64
2022-09-23T07:55:05.265Z,69.75
2022-09-23T07:57:54.122Z,70.47
2022-09-23T08:00:37.249Z,69.39
2022-09-23T08:03:25.950Z,68.78
2022-09-23T08:06:13.252Z,68.90
2022-09-23T08:09:04.943Z,68.55
2022-09-23T08:11:48.202Z,70.07
2022-09-23T08:14:35.847Z,69.80
2022-09-23T08:17:20.208Z,69.05
2022-09-23T08:20:08.930Z,69.94
2022-09-23T08:22:51.542Z,68.79
2022-09-23T08:25:41.401Z,68.65
2022-09-23T08:28:26.313Z,69.97
2022-09-23T08:31:21.794Z,69.80
2022-09-23T08:34:04.682Z,68.44
2022-09-23T08:36:53.933Z,69.51
2022-09-23T08:39:36.133Z,71.29
2022-09-23T08:42:34.862Z,73.59
2022-09-23T08:45:33.462Z,78.86
2022-09-23T08:48:28.784Z,79.86
2022-09-23T08:51:30.476Z,79.33
2022-09-23T08:54:12.888Z,79.52
2022-09-23T08:57:06.217Z,80.16
2022-09-23T08:59:52.935Z,80.62
2022-09-23T09:02:43.214Z,79.85
2022-09-23T09:05:35.884Z,79.99
2022-09-23T09:08:33.164Z,78.56
2022-09-23T09:11:19.894Z,79.51
2022-09-23T09:14:28.349Z,79.43
2022-09-23T09:17:21.883Z,82.68
2022-09-23T09:20:31.856Z,83.92
2022-09-23T09:23:32.867Z,80.65
2022-09-23T09:26:32.178Z,80.68
2022-09-23T09:29:35.702Z,83.21
2022-09-23T09:32:45.728Z,82.20
2022-09-23T09:35:49.884Z,82.08
2022-09-23T09:38:32.895Z,81.06
2022-09-23T09:41:28.935Z,80.54
2022-09-23T09:44:30.065Z,80.67
2022-09-23T09:47:24.952Z,81.07
2022-09-23T09:50:24.970Z,80.71
2022-09-23T09:53:31.883Z,81.75
2022-09-23T09:56:19.956Z,80.69
2022-09-23T09:59:16.814Z,80.30
2022-09-23T10:02:42.119Z,79.75
2022-09-23T10:05:41.821Z,80.79
2022-09-23T10:08:30.116Z,80.07
2022-09-23T10:11:23.753Z,79.51
2022-09-23T10:14:14.207Z,79.65
2022-09-23T10:17:12.811Z,77.14
2022-09-23T10:20:08.801Z,80.35
2022-09-23T10:22:57.847Z,79.66
2022-09-23T10:25:43.095Z,79.13
2022-09-23T10:29:00.896Z,79.21
2022-09-23T10:31:51.827Z,79.80
2022-09-23T10:34:42.529Z,79.74
2022-09-23T10:37:38.896Z,79.37
2022-09-23T10:40:57.430Z,80.02
2022-09-23T10:44:00.937Z,79.54
2022-09-23T10:47:15.671Z,78.66
2022-09-23T10:50:03.818Z,79.32
2022-09-23T10:53:16.303Z,79.27
2022-09-23T10:56:23.826Z,80.31
2022-09-23T10:59:31.325Z,80.06
2022-09-23T11:02:21.825Z,80.05
2022-09-23T11:05:27.375Z,79.48
2022-09-23T11:08:12.845Z,79.16
2022-09-23T11:11:24.148Z,78.97
2022-09-23T11:14:36.881Z,78.52
2022-09-23T11:17:46.128Z,77.58
2022-09-23T11:20:39.945Z,78.46
2022-09-23T11:23:49.459Z,77.47
2022-09-23T11:26:49.380Z,78.19
2022-09-23T11:30:10.546Z,78.79
2022-09-23T11:33:21.849Z,79.02
2022-09-23T11:36:16.864Z,78.13
2022-09-23T11:39:09.126Z,78.50
2022-09-23T11:41:52.777Z,79.96
2022-09-23T11:44:57.859Z,78.48
2022-09-23T11:47:55.767Z,79.04
2022-09-23T11:50:54.862Z,78.63
2022-09-23T11:53:57.402Z,77.69
2022-09-23T11:56:53.866Z,78.67
2022-09-23T12:00:00.762Z,78.29
2022-09-23T12:03:27.652Z,75.81
2022-09-23T12:06:51.768Z,76.57
2022-09-23T12:10:07.984Z,78.24
2022-09-23T12:13:04.158Z,77.96
2022-09-23T12:15:55.871Z,78.00
2022-09-23T12:19:18.808Z,77.31
2022-09-23T12:22:22.839Z,78.03
2022-09-23T12:25:32.742Z,77.21
2022-09-23T12:28:39.192Z,76.92
2022-09-23T12:31:26.789Z,78.66
2022-09-23T12:35:00.734Z,78.80
2022-09-23T12:37:50.817Z,78.15
2022-09-23T12:40:45.734Z,79.30
2022-09-23T12:43:43.894Z,77.87
2022-09-23T12:46:29.280Z,78.84
2022-09-23T12:49:35.906Z,78.65
2022-09-23T12:52:40.257Z,78.26
2022-09-23T12:55:29.797Z,78.35
2022-09-23T12:58:47.305Z,79.44
2022-09-23T13:01:36.981Z,79.43
2022-09-23T13:04:55.805Z,80.61
2022-09-23T13:07:52.805Z,79.22
2022-09-23T13:10:42.248Z,78.63
2022-09-23T13:13:41.768Z,78.25
2022-09-23T13:16:45.837Z,79.17
2022-09-23T13:19:28.218Z,79.23
2022-09-23T13:22:20.791Z,80.24
2022-09-23T13:25:24.241Z,80.35
2022-09-23T13:28:09.832Z,80.62
2022-09-23T13:31:00.380Z,80.89
2022-09-23T13:34:08.842Z,80.40
2022-09-23T13:36:57.881Z,80.02
2022-09-23T13:39:40.288Z,79.98
2022-09-23T13:42:37.773Z,80.37
2022-09-23T13:45:35.943Z,80.07
2022-09-23T13:48:20.326Z,80.36
2022-09-23T13:51:09.919Z,81.05
2022-09-23T13:53:57.080Z,81.15
2022-09-23T13:56:47.831Z,81.06
2022-09-23T13:59:39.914Z,80.86
2022-09-23T14:02:34.063Z,81.16
2022-09-23T14:05:27.478Z,80.95
2022-09-23T14:08:17.801Z,80.84
2022-09-23T14:11:08.228Z,80.28
2022-09-23T14:13:52.852Z,79.88
2022-09-23T14:16:50.063Z,78.92
2022-09-23T14:19:35.318Z,79.98
2022-09-23T14:22:37.778Z,80.22
2022-09-23T14:25:31.917Z,79.68
2022-09-23T14:28:20.078Z,79.66
2022-09-23T14:31:12.011Z,79.35
2022-09-23T14:34:00.243Z,80.22
2022-09-23T14:37:03.385Z,80.37
2022-09-23T14:39:59.287Z,80.45
2022-09-23T14:42:50.254Z,81.37
2022-09-23T14:45:47.949Z,80.89
2022-09-23T14:48:32.147Z,81.17
2022-09-23T14:51:20.931Z,80.63
2022-09-23T14:54:03.178Z,80.77
2022-09-23T14:56:51.981Z,80.17
2022-09-23T14:59:43.604Z,79.93
2022-09-23T15:02:52.899Z,80.02
2022-09-23T15:05:56.836Z,79.77
2022-09-23T15:08:45.240Z,80.16
2022-09-23T15:11:29.833Z,79.96
2022-09-23T15:14:37.319Z,80.56
2022-09-23T15:17:30.925Z,80.20
2022-09-23T15:20:32.917Z,80.56
2022-09-23T15:23:56.049Z,80.95
2022-09-23T15:26:54.899Z,80.67
2022-09-23T15:29:37.247Z,80.65
2022-09-23T15:32:32.899Z,80.38
2022-09-23T15:35:27.780Z,80.94
2022-09-23T15:38:11.840Z,81.28
2022-09-23T15:41:01.996Z,81.02
2022-09-23T15:43:54.782Z,80.64
2022-09-23T15:46:37.680Z,80.97
2022-09-23T15:49:49.918Z,80.92
2022-09-23T15:52:32.120Z,81.46
2022-09-23T15:55:32.858Z,81.35
2022-09-23T15:58:15.277Z,81.14
2022-09-23T16:01:06.028Z,81.29
2022-09-23T16:03:48.157Z,80.75
2022-09-23T16:06:37.856Z,81.02
2022-09-23T16:09:26.221Z,81.64
2022-09-23T16:12:09.832Z,81.31
2022-09-23T16:14:58.224Z,81.68
2022-09-23T16:17:41.790Z,81.58
2022-09-23T16:20:31.224Z,81.40
2022-09-23T16:23:16.999Z,81.61
2022-09-23T16:26:05.232Z,81.63
2022-09-23T16:28:47.873Z,81.92
2022-09-23T16:31:37.343Z,81.30
2022-09-23T16:34:28.921Z,81.52
2022-09-23T16:37:11.776Z,81.47
2022-09-23T16:40:00.884Z,81.39
2022-09-23T16:42:43.295Z,81.11
2022-09-23T16:45:31.935Z,81.57
2022-09-23T16:48:14.762Z,81.22
2022-09-23T16:51:03.873Z,81.69
2022-09-23T16:53:52.949Z,81.51
2022-09-23T16:56:42.860Z,81.50
2022-09-23T16:59:51.865Z,80.94
2022-09-23T17:02:59.808Z,81.10
2022-09-23T17:05:45.379Z,81.38
2022-09-23T17:08:35.946Z,80.87
2022-09-23T17:11:29.131Z,80.70
2022-09-23T17:14:21.929Z,81.75
2022-09-23T17:17:06.951Z,81.45
2022-09-23T17:19:49.365Z,81.84
2022-09-23T17:22:37.933Z,81.36
2022-09-23T17:25:26.523Z,80.79
2022-09-23T17:28:09.915Z,81.03
2022-09-23T17:31:09.754Z,81.55
2022-09-23T17:34:00.873Z,81.68
2022-09-23T17:36:43.319Z,81.74
2022-09-23T17:39:32.419Z,81.60
2022-09-23T17:42:15.811Z,82.23
2022-09-23T17:45:06.519Z,82.11
2022-09-23T17:47:55.949Z,82.09
2022-09-23T17:50:45.322Z,82.36
2022-09-23T17:53:27.393Z,82.44
2022-09-23T17:56:20.950Z,82.19
2022-09-23T17:59:07.298Z,81.95
2022-09-23T18:01:57.258Z,82.61
2022-09-23T18:04:40.152Z,82.33
2022-09-23T18:07:31.569Z,82.62
2022-09-23T18:10:15.309Z,81.96
2022-09-23T18:13:03.859Z,81.68
2022-09-23T18:15:48.309Z,81.60
2022-09-23T18:18:37.865Z,81.74
2022-09-23T18:21:20.816Z,82.87
2022-09-23T18:24:31.180Z,83.62
2022-09-23T18:27:12.175Z,82.57
2022-09-23T18:30:00.940Z,82.58
2022-09-23T18:32:43.135Z,81.49
2022-09-23T18:35:31.865Z,81.37
2022-09-23T18:38:14.485Z,80.40
2022-09-23T18:41:04.928Z,80.61
2022-09-23T18:43:48.710Z,80.46
2022-09-23T18:46:38.855Z,80.11
2022-09-23T18:49:45.757Z,80.64
2022-09-23T18:52:41.967Z,80.91
2022-09-23T18:55:30.754Z,79.75
2022-09-23T18:58:20.856Z,80.27
2022-09-23T19:01:14.884Z,80.40
2022-09-23T19:04:10.168Z,81.29
2022-09-23T19:06:58.863Z,80.20
2022-09-23T19:09:41.389Z,80.27
2022-09-23T19:12:29.848Z,80.73
2022-09-23T19:15:13.292Z,80.19
2022-09-23T19:18:02.860Z,80.09
2022-09-23T19:20:45.709Z,79.85
2022-09-23T19:23:42.845Z,80.46
2022-09-23T19:26:30.500Z,80.81
2022-09-23T19:29:29.877Z,80.98
2022-09-23T19:32:12.322Z,80.86
2022-09-23T19:35:00.863Z,80.99
2022-09-23T19:37:43.361Z,80.21
2022-09-23T19:40:31.910Z,80.39
2022-09-23T19:43:21.857Z,80.00
2022-09-23T19:46:14.799Z,80.03
2022-09-23T19:48:57.202Z,80.45
2022-09-23T19:51:46.754Z,80.25
2022-09-23T19:54:29.302Z,79.71
2022-09-23T19:57:18.221Z,79.24
2022-09-23T20:00:00.573Z,80.23
2022-09-23T20:02:54.843Z,79.88
2022-09-23T20:05:37.298Z,78.91
2022-09-23T20:08:25.862Z,79.67
2022-09-23T20:11:13.518Z,79.13
2022-09-23T20:14:08.875Z,78.55
2022-09-23T20:16:51.310Z,78.97
2022-09-23T20:19:39.746Z,79.56
2022-09-23T20:22:39.887Z,79.60
2022-09-23T20:25:21.990Z,78.89
2022-09-23T20:28:10.863Z,80.17
2022-09-23T20:30:59.795Z,79.68
2022-09-23T20:33:55.827Z,80.23
2022-09-23T20:36:38.245Z,79.46
2022-09-23T20:39:26.735Z,80.12
2022-09-23T20:42:16.839Z,80.20
2022-09-23T20:44:59.125Z,80.36
2022-09-23T20:47:47.767Z,80.63
2022-09-23T20:50:30.118Z,80.29
2022-09-23T20:53:18.908Z,79.24
2022-09-23T20:56:03.142Z,79.46
2022-09-23T20:58:51.838Z,80.23
2022-09-23T21:01:40.809Z,80.45
2022-09-23T21:04:30.127Z,78.93
2022-09-23T21:07:11.780Z,80.17
2022-09-23T21:10:02.972Z,80.24
2022-09-23T21:12:44.834Z,80.48
2022-09-23T21:15:33.857Z,79.38
2022-09-23T21:18:21.739Z,80.11
2022-09-23T21:21:13.135Z,80.09
2022-09-23T21:24:23.676Z,79.96
2022-09-23T21:27:11.749Z,79.76
2022-09-23T21:30:00.832Z,80.37
2022-09-23T21:32:49.867Z,80.10
2022-09-23T21:35:38.929Z,79.77
2022-09-23T21:38:21.877Z,79.75
2022-09-23T21:41:13.155Z,79.50
2022-09-23T21:43:56.772Z,80.58
2022-09-23T21:46:45.917Z,80.14
2022-09-23T21:49:34.862Z,79.11
2022-09-23T21:52:23.872Z,79.57
2022-09-23T21:55:06.152Z,79.21
2022-09-23T21:57:54.758Z,79.00
2022-09-23T22:00:43.939Z,79.44
2022-09-23T22:03:26.760Z,79.40
2022-09-23T22:06:27.890Z,79.30
2022-09-23T22:09:24.858Z,79.24
2022-09-23T22:12:08.882Z,79.11
2022-09-23T22:14:59.773Z,78.79
2022-09-23T22:17:42.139Z,79.45
2022-09-23T22:20:30.854Z,79.02
2022-09-23T22:23:13.263Z,79.47
2022-09-23T22:26:05.772Z,79.14
2022-09-23T22:29:06.308Z,79.08
2022-09-23T22:32:12.892Z,79.97
2022-09-23T22:35:01.299Z,78.82
2022-09-23T22:37:44.776Z,78.38
2022-09-23T22:40:34.092Z,79.53
2022-09-23T22:43:16.197Z,78.89
2022-09-23T22:46:04.845Z,78.86
2022-09-23T22:48:47.396Z,78.66
2022-09-23T22:51:35.764Z,79.21
2022-09-23T22:54:19.413Z,79.52
2022-09-23T22:57:09.826Z,80.08
2022-09-23T22:59:52.487Z,79.40
2022-09-23T23:02:42.843Z,79.51
2022-09-23T23:05:31.852Z,78.98
2022-09-23T23:08:24.755Z,79.17
2022-09-23T23:11:12.463Z,80.55
2022-09-23T23:13:54.755Z,79.46
2022-09-23T23:16:43.746Z,80.02
2022-09-23T23:19:27.056Z,79.38
2022-09-23T23:22:15.730Z,79.12
2022-09-23T23:24:58.124Z,80.32
2022-09-23T23:27:46.744Z,80.64
2022-09-23T23:30:30.146Z,79.94
2022-09-23T23:33:18.848Z,80.14
2022-09-23T23:36:01.105Z,80.70
2022-09-23T23:38:51.839Z,80.19
2022-09-23T23:41:34.268Z,80.90
2022-09-23T23:44:22.762Z,79.87
2022-09-23T23:47:05.521Z,80.61
2022-09-23T23:49:54.771Z,79.94
2022-09-23T23:52:37.143Z,79.67
2022-09-23T23:55:25.890Z,79.97
2022-09-23T23:58:08.154Z,80.42
